Zweibrucken, Germany

3:55 AM CET on February 06, 2016 (GMT +0100)
Lautzkirchen, near Gaenshorn | | Change Station
CLOSE
Current Station
Personal Weather Station
Location: Blieskastel, SAARLAND
Elevation: 922 ft
Nearby Weather Stations

Elev 922 ft 49.26 °N, 7.24 °E | Updated 10 minutes ago

Clear
Clear
36.7 °F
Feels Like 37 °F
N
0.0
Wind Variable Wind from South
Gusts 0.0 mph

Today
High -- | Low -- °F
--% Chance of Precip.
Yesterday
High -- | Low -- °F
Precip. -- in
Pressure 30.08 in
Visibility 1.2 miles
Clouds Clear
Windchill 37 °F
Dew Point 35 °F
Humidity 93%
Rainfall 0.02 in
Snow Depth Not available.
7:55 AM 5:34 PM
Waning Crescent, 8% visible
SPECI ETAR 060251Z AUTO 00000KT 2000 R26/0900 BR CLR 02/02 A3008 RMK AO2 VIS 0800V2000 $
Pressure 30.08 in
Visibility 1.2 miles
Clouds Clear
Windchill 37 °F
Dew Point 35 °F
Humidity 93%
Rainfall 0.02 in
Snow Depth Not available.
7:55 AM 5:34 PM
Waning Crescent, 8% visible
SPECI ETAR 060251Z AUTO 00000KT 2000 R26/0900 BR CLR 02/02 A3008 RMK AO2 VIS 0800V2000 $

10-Day Weather Forecast

Almanac

Astronomy

Feb. 06, 2016 Rise Set
Actual Time
Civil Twilight
Nautical Twilight
Astronomical Twilight
Moon
Length of Visible Light
Length of Day
Tomorrow will be .
, % of the Moon is Illuminated

Today's Extremes

Country Highs Country Lows

Community

WunderPhotos

Upload Photos

1,890,913 photos uploaded!

WunderBlog® & News

Nearby

Air Quality

  Air Quality AQ Index Pollutant
Not available.

Snow Depth

Station Depth Elevation

Earthquake Activity

City Distance Mag. Time & Date
Minimum magnitude displayed is 2.5.

Coastal Water Temperatures

Place Temperature

Stations

Nearby Weather Stations

Station Location Temp. Windchill Dew Point Humidity Wind Precip. Elev Updated Type